Historyczne dane pomiarowe

Dodano dane terminowe – wersja testowa.

Dane z okresu 1951-2019

Wersja bazy: 1.34 [2019-03-16, lista zmian], aktualizacja planowana na 2019-04-15

Dane meteo z obszaru Polski uzyskane na podstawie danych udostępnionych przez Instytut Meteorologii i Gospodarki Wodnej – Państwowy Instytut Badawczy.

 

Wybierz Datę:    

       

TemperaturaWilgotnośćWiatrCiśnienieOpadyŚniegCzas trwania zjawisk
 Stacja t tx tn tng RH VA  wxwx mslp ppp RRR   cm mm wxwxwxwxwxwxwx
1994-08-14 14.7 18.5 11.0 9.6 57.5- 3.3 5.0---- 0.0------------
1994-08-13 16.5 21.9 14.7 14.0 82.0- 5.7 5.3---- 0.6------------
1994-08-12 16.7 20.7 15.0 12.5 79.3- 7.3 4.7---- 4.3------------
1994-08-11 18.3 23.0 16.2 15.0 81.0- 6.3 2.0---- 3.1------------
1994-08-10 19.7 27.0 10.3 9.4 69.0- 1.3 2.3---- 6.2------------
1994-08-09 18.6 23.4 17.3 16.0 90.8- 5.7 2.0---- 4.7------------
1994-08-08 21.7 26.0 17.6 15.4 73.3- 5.3 2.0---- 12.6------------
1994-08-07 23.7 32.4 16.2 13.4 70.5- 5.0 3.7---- 43.7------------
1994-08-06 25.8 33.6 13.0 10.2 53.5- 1.3 3.3---- 0.4------------
1994-08-05 24.5 31.2 13.0 11.3 57.0- 1.3 2.7---- 0.0------------
1994-08-04 20.7 28.6 12.8 10.6 61.3- 2.3 2.3---- 0.0------------
1994-08-03 24.6 30.2 18.4 17.0 63.0- 4.0 3.3---- 0.0------------
1994-08-02 25.9 32.7 19.3 10.9 52.5- 5.7 3.0---- 0.0------------
1994-08-01 27.9 35.0 14.6 12.2 44.8- 2.3 1.3---- 0.0------------
1994-07-31 26.9 34.7 14.9 11.8 42.5- 0.0 3.0---- 0.0------------
1994-07-30 25.4 34.2 14.0 11.0 51.3- 1.0 1.7---- 0.0------------
1994-07-29 25.6 33.9 13.5 9.7 49.3- 0.7 1.3---- 0.0------------
1994-07-28 25.0 33.4 12.0 8.0 46.3- 1.0 4.0---- 0.0------------
1994-07-27 24.9 33.5 13.0 10.7 47.8- 2.0 2.7---- 0.0------------
1994-07-26 24.3 32.6 11.5 8.5 52.8- 1.3 1.0---- 0.0------------
1994-07-25 22.5 31.5 10.2 6.6 48.3- 1.0 1.7---- 0.0------------
1994-07-24 22.8 30.5 10.2 5.4 47.5- 0.7 3.0---- 0.0------------
1994-07-23 21.3 28.6 9.4 5.5 52.5- 1.3 4.0---- 0.0------------
1994-07-22 20.8 28.4 7.5 5.2 53.3- 0.7 4.3---- 0.0------------
1994-07-21 20.1 26.0 7.6 4.5 52.3- 0.0 1.3---- 0.0------------
1994-07-20 17.6 23.8 10.6 8.3 53.3- 3.0 3.7---- 0.0------------
1994-07-19 18.9 23.4 12.7 9.3 63.5- 7.0 4.3---- 0.0------------
1994-07-18 20.7 26.0 13.0 11.9 68.3- 2.3 1.7---- 0.0------------
1994-07-17 20.0 27.8 15.0 12.7 80.3- 2.7 2.0---- 10.1------------
1994-07-16 21.6 29.4 13.0 10.7 67.0- 3.3 2.7---- 2.2------------
1994-07-15 22.7 28.0 13.8 9.8 57.5- 2.0 2.3---- 0.0------------
1994-07-14 23.2 29.8 11.1 8.1 57.8- 6.0 3.7---- 0.0------------
1994-07-13 21.6 28.0 12.3 8.0 52.8- 4.7 5.7---- 0.0------------
1994-07-12 19.8 26.2 13.0 10.9 67.0- 4.7 3.3---- 0.0------------
1994-07-11 18.9 25.7 11.3 8.5 66.0- 5.7 3.7---- 0.0------------
1994-07-10 17.2 22.8 12.4 11.6 70.0- 4.3 3.3---- 1.3------------
1994-07-09 15.1 17.2 13.2 12.0 74.3- 7.0 6.0---- 19.1------------
1994-07-08 15.9 20.1 12.7 11.7 61.5- 5.3 5.0---- 1.2------------
1994-07-07 19.9 26.8 8.2 5.0 57.5- 5.3 2.7---- 3.9------------
1994-07-06 20.0 25.2 8.0 4.0 49.8- 3.0 2.3---- 0.0------------
1994-07-05 19.7 27.8 12.4 8.8 55.5- 6.7 2.7---- 0.0------------
1994-07-04 24.6 30.2 8.9 4.8 36.3- 1.0 2.0---- 0.0------------
1994-07-03 21.7 27.7 8.2 2.9 47.3- 0.7 2.3---- 0.0------------
1994-07-02 19.2 26.0 6.8 2.3 49.0- 0.0 3.3---- 0.0------------
1994-07-01 17.8 24.0 9.8 4.0 56.0- 1.0 4.0---- 0.0------------
1994-06-30 21.5 29.5 18.0 14.8 68.5- 5.0 6.7---- 0.0------------
1994-06-29 27.5 32.6 15.4 11.4 47.8- 2.0 2.7---- 0.0------------
1994-06-28 25.0 31.2 14.7 12.3 56.0- 3.0 2.7---- 0.0------------
1994-06-27 26.4 32.0 14.6 11.5 55.5- 4.3 1.3---- 0.0------------
1994-06-26 22.5 30.1 10.0 5.6 47.8- 1.3 2.7---- 0.0------------
1994-06-25 17.0 25.2 1.5 -2.2 49.3- 0.0 4.0---- 0.0------------
1994-06-24 14.5 21.0 6.0 -0.5 49.8- 0.0 6.3---- 0.0------------
1994-06-23 17.4 24.5 15.2 13.5 48.0- 3.0 7.7---- 0.0------------
1994-06-22 18.4 26.1 5.5 3.2 62.0- 4.7 4.0---- 0.0------------
1994-06-21 15.3 21.1 3.2 -0.2 60.3- 4.0 1.7---- 0.0------------
1994-06-20 16.4 23.2 9.2 4.8 64.5- 5.7 4.7---- 0.0------------
1994-06-19 18.0 25.0 10.2 10.0 61.0- 4.3 6.0---- 0.0------------
1994-06-18 12.8 19.3 8.7 -1.8 70.8- 5.0 4.7---- 8.6------------
1994-06-17 11.8 15.1 7.8 7.7 65.5- 4.7 6.7---- 0.0------------
1994-06-16 10.7 17.2 5.0 -1.0 74.8- 7.0 5.3---- 5.7------------
412.4 ms

 

Źródłem pochodzenia danych jest Instytut Meteorologii i Gospodarki Wodnej – Państwowy Instytut Badawczy. Dane Instytutu Meteorologii i Gospodarki Wodnej – Państwowego Instytutu Badawczego zostały przetworzone.

Dane źródłowe można odnaleźć na stronie https://dane.imgw.pl